createdAt,value
2016-03-26T00:00:01.889Z,715.06
2016-03-26T00:00:15.732Z,715.2
2016-03-26T00:00:30.170Z,715.22
2016-03-26T00:00:44.139Z,715.24
2016-03-26T00:00:58.126Z,715.11
2016-03-26T00:01:11.970Z,715.04
2016-03-26T00:01:25.689Z,715.15
2016-03-26T00:01:39.517Z,715.11
2016-03-26T00:01:53.439Z,715.2
2016-03-26T00:02:07.722Z,715.11
2016-03-26T00:02:20.800Z,715.3
2016-03-26T00:02:34.612Z,715.39
2016-03-26T00:02:48.581Z,715.17
2016-03-26T00:03:02.334Z,715.5
2016-03-26T00:03:16.084Z,715.28
2016-03-26T00:03:30.037Z,714.89
2016-03-26T00:03:44.069Z,715.06
2016-03-26T00:03:57.883Z,715.08
2016-03-26T00:04:11.164Z,714.83
2016-03-26T00:04:25.117Z,714.79
2016-03-26T00:04:39.117Z,714.68
2016-03-26T00:04:52.821Z,715.14
2016-03-26T00:05:06.621Z,714.99
2016-03-26T00:05:20.918Z,714.87
2016-03-26T00:05:35.012Z,714.84
2016-03-26T00:05:48.653Z,714.98
2016-03-26T00:06:03.030Z,714.97
2016-03-26T00:06:16.686Z,715.13
2016-03-26T00:06:30.623Z,715.04
2016-03-26T00:06:44.280Z,715.13
2016-03-26T00:06:58.111Z,715.25
2016-03-26T00:07:12.236Z,715.19
2016-03-26T00:07:26.626Z,715.46
2016-03-26T00:07:40.501Z,715.44
2016-03-26T00:07:54.283Z,714.95
2016-03-26T00:08:08.223Z,715.03
2016-03-26T00:08:22.301Z,715.06
2016-03-26T00:08:36.598Z,714.84
2016-03-26T00:08:50.254Z,714.93
2016-03-26T00:09:04.350Z,715.08
2016-03-26T00:09:18.538Z,715.07
2016-03-26T00:09:32.866Z,715.19
2016-03-26T00:09:46.788Z,715.31
2016-03-26T00:10:00.681Z,715.28
2016-03-26T00:10:14.338Z,715.32
2016-03-26T00:10:28.650Z,715.2
2016-03-26T00:10:42.681Z,715.09
2016-03-26T00:10:56.528Z,715.03
2016-03-26T00:11:10.372Z,715.14
2016-03-26T00:11:23.450Z,714.98
2016-03-26T00:11:37.450Z,714.89
2016-03-26T00:11:51.466Z,715.01
2016-03-26T00:12:05.264Z,714.91
2016-03-26T00:12:19.046Z,715.04
2016-03-26T00:12:32.968Z,715.06
2016-03-26T00:12:46.968Z,715.17
2016-03-26T00:13:00.767Z,715.12
2016-03-26T00:13:14.674Z,714.99
2016-03-26T00:13:28.455Z,715.01
2016-03-26T00:13:42.361Z,715.08
2016-03-26T00:13:59.489Z,715.21
2016-03-26T00:14:13.364Z,715.16
2016-03-26T00:14:27.130Z,715.24
2016-03-26T00:14:40.786Z,715.01
2016-03-26T00:14:54.724Z,715.16
2016-03-26T00:15:09.257Z,714.95
2016-03-26T00:15:23.038Z,714.95
2016-03-26T00:15:37.101Z,715.18
2016-03-26T00:15:51.116Z,715.21
2016-03-26T00:16:05.135Z,715.19
2016-03-26T00:16:19.119Z,715.23
2016-03-26T00:16:33.291Z,715.29
2016-03-26T00:16:50.682Z,714.82
2016-03-26T00:17:04.622Z,715.1
2016-03-26T00:17:18.357Z,714.94
2016-03-26T00:17:32.169Z,715.41
2016-03-26T00:17:45.982Z,715.17
2016-03-26T00:18:00.030Z,715.09
2016-03-26T00:18:13.999Z,715.01
2016-03-26T00:18:27.874Z,715.03
2016-03-26T00:18:41.890Z,714.92
2016-03-26T00:18:55.999Z,714.99
2016-03-26T00:19:12.955Z,714.95
2016-03-26T00:19:27.127Z,715.01
2016-03-26T00:19:41.002Z,714.73
2016-03-26T00:19:55.158Z,714.94
2016-03-26T00:20:09.130Z,714.99
2016-03-26T00:20:23.036Z,714.9
2016-03-26T00:20:36.943Z,714.85
2016-03-26T00:20:50.661Z,715.12
2016-03-26T00:21:04.507Z,714.97
2016-03-26T00:21:35.351Z,715.21
2016-03-26T00:21:49.132Z,715.09
2016-03-26T00:22:16.948Z,715.08
2016-03-26T00:22:31.041Z,715.05
2016-03-26T00:22:45.151Z,715.06
2016-03-26T00:22:59.059Z,715.08
2016-03-26T00:23:13.559Z,715.2
2016-03-26T00:23:30.465Z,715.19
2016-03-26T00:23:44.340Z,715.17
2016-03-26T00:23:57.687Z,715.4
2016-03-26T00:24:11.625Z,715.5
2016-03-26T00:24:25.546Z,715.06
2016-03-26T00:24:39.359Z,715.22
2016-03-26T00:24:53.312Z,715.15
2016-03-26T00:25:07.206Z,715.12
2016-03-26T00:25:21.237Z,715.33
2016-03-26T00:25:35.487Z,715.28
2016-03-26T00:25:49.503Z,715.32
2016-03-26T00:26:03.302Z,715.28
2016-03-26T00:26:17.177Z,715.31
2016-03-26T00:26:30.131Z,715.31
2016-03-26T00:26:43.927Z,715.41
2016-03-26T00:27:00.649Z,715.34
2016-03-26T00:27:14.446Z,715.39
2016-03-26T00:27:28.540Z,715.47
2016-03-26T00:27:42.462Z,715.34
2016-03-26T00:27:56.667Z,715.23
2016-03-26T00:28:10.511Z,715.5
2016-03-26T00:28:24.636Z,715.25
2016-03-26T00:28:38.495Z,715.03
2016-03-26T00:28:52.307Z,714.8
2016-03-26T00:29:06.045Z,715.02
2016-03-26T00:29:20.139Z,715.21
2016-03-26T00:29:33.920Z,715.19
2016-03-26T00:29:47.732Z,715.32
2016-03-26T00:30:00.937Z,715.14
2016-03-26T00:30:14.906Z,715.36
2016-03-26T00:30:28.672Z,715.4
2016-03-26T00:30:43.359Z,715.02
2016-03-26T00:30:57.253Z,715
2016-03-26T00:31:11.112Z,714.78
2016-03-26T00:31:25.019Z,714.91
2016-03-26T00:31:38.815Z,714.9
2016-03-26T00:31:52.737Z,715.05
2016-03-26T00:32:06.615Z,714.84
2016-03-26T00:32:20.537Z,714.98
2016-03-26T00:32:34.553Z,715.15
2016-03-26T00:32:48.287Z,715
2016-03-26T00:33:01.477Z,714.67
2016-03-26T00:33:15.383Z,714.87
2016-03-26T00:33:28.977Z,714.72
2016-03-26T00:33:42.117Z,714.79
2016-03-26T00:33:56.461Z,714.71
2016-03-26T00:34:10.355Z,715.24
2016-03-26T00:34:24.308Z,715.52
2016-03-26T00:34:38.245Z,715.24
2016-03-26T00:34:51.995Z,715.14
2016-03-26T00:35:05.920Z,715.26
2016-03-26T00:35:19.748Z,715.2
2016-03-26T00:35:33.701Z,715.13
2016-03-26T00:35:47.498Z,715.11
2016-03-26T00:36:01.267Z,714.9
2016-03-26T00:36:15.345Z,714.99
2016-03-26T00:36:29.298Z,715.12
2016-03-26T00:36:43.470Z,715.03
2016-03-26T00:36:57.472Z,715.11
2016-03-26T00:37:11.441Z,714.95
2016-03-26T00:37:28.425Z,715.18
2016-03-26T00:37:42.160Z,715.24
2016-03-26T00:37:56.206Z,715.2
2016-03-26T00:38:10.289Z,715.05
2016-03-26T00:38:24.148Z,715.36
2016-03-26T00:38:38.148Z,715.28
2016-03-26T00:38:51.820Z,715.03
2016-03-26T00:39:05.697Z,715.4
2016-03-26T00:39:19.509Z,715.49
2016-03-26T00:39:33.337Z,715.2
2016-03-26T00:39:47.150Z,715.44
2016-03-26T00:40:01.371Z,715.12
2016-03-26T00:40:15.121Z,715.3
2016-03-26T00:40:29.199Z,715.12
2016-03-26T00:40:43.308Z,715.35
2016-03-26T00:40:57.027Z,715.13
2016-03-26T00:41:10.796Z,715.09
2016-03-26T00:41:24.686Z,715.33
2016-03-26T00:41:38.393Z,715.39
2016-03-26T00:41:52.128Z,715.19
2016-03-26T00:42:06.021Z,715.2
2016-03-26T00:42:19.896Z,715.28
2016-03-26T00:42:33.553Z,715.19
2016-03-26T00:42:47.287Z,715.38
2016-03-26T00:43:01.273Z,715.25
2016-03-26T00:43:15.742Z,715.33
2016-03-26T00:43:29.820Z,714.66
2016-03-26T00:43:43.726Z,715.07
2016-03-26T00:43:57.555Z,715.4
2016-03-26T00:44:11.542Z,715.12
2016-03-26T00:44:25.370Z,714.52
2016-03-26T00:44:39.526Z,715.2
2016-03-26T00:44:53.370Z,715.89
2016-03-26T00:45:07.170Z,715.45
2016-03-26T00:45:20.451Z,715.15
2016-03-26T00:45:34.326Z,715.57
2016-03-26T00:45:48.279Z,715.14
2016-03-26T00:46:02.110Z,715.26
2016-03-26T00:46:30.079Z,715.11
2016-03-26T00:46:43.939Z,715.21
2016-03-26T00:46:58.220Z,715.38
2016-03-26T00:47:11.300Z,715.29
2016-03-26T00:47:25.112Z,715.23
2016-03-26T00:47:39.066Z,715.21
2016-03-26T00:47:52.909Z,715.08
2016-03-26T00:48:06.819Z,715.16
2016-03-26T00:48:35.006Z,715.14
2016-03-26T00:48:48.819Z,715.18
2016-03-26T00:49:02.618Z,715.22
2016-03-26T00:49:16.572Z,715.09
2016-03-26T00:49:30.447Z,715.05
2016-03-26T00:49:44.431Z,715.24
2016-03-26T00:49:58.181Z,715.27
2016-03-26T00:50:12.105Z,715.06
2016-03-26T00:50:26.620Z,715.2
2016-03-26T00:50:40.495Z,715.01
2016-03-26T00:50:54.761Z,714.98
2016-03-26T00:51:08.545Z,715.05
2016-03-26T00:51:22.467Z,715.22
2016-03-26T00:51:36.311Z,715.03
2016-03-26T00:51:50.108Z,715.2
2016-03-26T00:52:03.907Z,715.35
2016-03-26T00:52:17.766Z,715.31
2016-03-26T00:52:31.797Z,715.38
2016-03-26T00:52:45.610Z,715.28
2016-03-26T00:52:59.708Z,715.17
2016-03-26T00:53:13.583Z,715.1
2016-03-26T00:53:26.879Z,714.99
2016-03-26T00:53:40.895Z,715.02
2016-03-26T00:53:54.801Z,715.09
2016-03-26T00:54:08.772Z,715.03
2016-03-26T00:54:22.756Z,714.97
2016-03-26T00:54:36.647Z,715.29
2016-03-26T00:54:50.928Z,714.96
2016-03-26T00:55:04.728Z,715.26
2016-03-26T00:55:18.791Z,715.45
2016-03-26T00:55:32.931Z,715.5
2016-03-26T00:55:45.947Z,715.23
2016-03-26T00:55:59.871Z,715.28
2016-03-26T00:56:13.558Z,715.43
2016-03-26T00:56:27.418Z,715.27
2016-03-26T00:56:41.183Z,715.29
2016-03-26T00:56:55.636Z,715.45
2016-03-26T00:57:09.639Z,715.25
2016-03-26T00:57:23.421Z,715.04
2016-03-26T00:57:37.264Z,715.22
2016-03-26T00:57:51.171Z,715.07
2016-03-26T00:58:05.080Z,715.32
2016-03-26T00:58:19.096Z,715.14
2016-03-26T00:58:33.267Z,715.2
2016-03-26T00:58:47.158Z,715.16
2016-03-26T00:59:01.145Z,715.48
2016-03-26T00:59:15.208Z,715.28
2016-03-26T00:59:29.005Z,715.27
2016-03-26T00:59:42.895Z,715.31
2016-03-26T00:59:56.770Z,715.22
2016-03-26T01:00:10.929Z,714.95
2016-03-26T01:00:25.288Z,715.17
2016-03-26T01:00:39.351Z,715.3
2016-03-26T01:00:53.272Z,715.21
2016-03-26T01:01:07.119Z,715.39
2016-03-26T01:01:21.135Z,715.14
2016-03-26T01:01:49.275Z,715.01
2016-03-26T01:02:03.325Z,715.26
2016-03-26T01:02:17.607Z,715.37
2016-03-26T01:02:31.466Z,715.09
2016-03-26T01:02:45.372Z,715.26
2016-03-26T01:02:59.294Z,715.32
2016-03-26T01:03:13.547Z,715.33
2016-03-26T01:03:27.453Z,715.53
2016-03-26T01:03:41.547Z,715.3
2016-03-26T01:03:55.516Z,715.37
2016-03-26T01:04:09.565Z,715.31
2016-03-26T01:04:23.549Z,715.39
2016-03-26T01:04:37.377Z,715
2016-03-26T01:04:51.455Z,715.24
2016-03-26T01:05:05.348Z,715.36
2016-03-26T01:05:19.160Z,715.2
2016-03-26T01:05:33.223Z,715.28
2016-03-26T01:05:47.176Z,715.27
2016-03-26T01:06:00.960Z,715.17
2016-03-26T01:06:14.835Z,715.18
2016-03-26T01:06:28.742Z,715.23
2016-03-26T01:06:42.648Z,715.11
2016-03-26T01:06:56.038Z,715.13
2016-03-26T01:07:09.683Z,715.22
2016-03-26T01:07:23.308Z,715.13
2016-03-26T01:07:37.183Z,715.2
2016-03-26T01:07:51.042Z,715.16
2016-03-26T01:08:05.544Z,715.21
2016-03-26T01:08:19.451Z,715.35
2016-03-26T01:08:33.685Z,715.24
2016-03-26T01:08:47.857Z,715.21
2016-03-26T01:09:01.907Z,715.32
2016-03-26T01:09:15.797Z,715.33
2016-03-26T01:09:29.282Z,715.32
2016-03-26T01:09:43.360Z,715.22
2016-03-26T01:09:57.422Z,715.29
2016-03-26T01:10:11.957Z,715.26
2016-03-26T01:10:25.754Z,715.21
2016-03-26T01:10:39.832Z,715.05
2016-03-26T01:10:53.660Z,715.12
2016-03-26T01:11:07.365Z,715.03
2016-03-26T01:11:21.240Z,714.97
2016-03-26T01:11:35.099Z,714.98
2016-03-26T01:11:49.131Z,715.15
2016-03-26T01:12:02.541Z,715.21
2016-03-26T01:12:16.650Z,715.26
2016-03-26T01:12:30.478Z,715.24
2016-03-26T01:12:44.244Z,715.28
2016-03-26T01:12:57.978Z,715.36
2016-03-26T01:13:11.794Z,715.28
2016-03-26T01:13:28.731Z,715.32
2016-03-26T01:13:42.731Z,715.3
2016-03-26T01:13:56.700Z,715.36
2016-03-26T01:14:10.546Z,715.31
2016-03-26T01:14:24.374Z,715.26
2016-03-26T01:14:38.280Z,715.38
2016-03-26T01:14:52.233Z,715.2
2016-03-26T01:15:06.033Z,715.39
2016-03-26T01:15:20.002Z,715.36
2016-03-26T01:15:33.596Z,715.31
2016-03-26T01:15:47.611Z,715.35
2016-03-26T01:16:01.646Z,715.43
2016-03-26T01:16:15.521Z,715.34
2016-03-26T01:16:29.255Z,715.34
2016-03-26T01:16:43.067Z,715.43
2016-03-26T01:16:57.067Z,715.45
2016-03-26T01:17:11.163Z,715.56
2016-03-26T01:17:25.413Z,715.55
2016-03-26T01:17:39.273Z,715.52
2016-03-26T01:17:53.116Z,715.54
2016-03-26T01:18:06.931Z,715.52
2016-03-26T01:18:20.790Z,715.5
2016-03-26T01:18:34.571Z,715.48
2016-03-26T01:18:49.181Z,715.46
2016-03-26T01:19:03.012Z,715.42
2016-03-26T01:19:16.856Z,715.49
2016-03-26T01:19:30.668Z,715.55
2016-03-26T01:19:44.668Z,715.59
2016-03-26T01:19:58.793Z,715.5
2016-03-26T01:20:15.046Z,715.52
2016-03-26T01:20:29.031Z,715.58
2016-03-26T01:20:43.124Z,715.63
2016-03-26T01:20:56.984Z,715.57
2016-03-26T01:21:10.784Z,715.6
2016-03-26T01:21:24.534Z,715.47
2016-03-26T01:21:38.549Z,715.59
2016-03-26T01:21:52.580Z,715.52
2016-03-26T01:22:06.223Z,715.59
2016-03-26T01:22:20.223Z,715.59
2016-03-26T01:22:34.051Z,715.65
2016-03-26T01:22:47.957Z,715.62
2016-03-26T01:23:01.882Z,715.63
2016-03-26T01:23:15.085Z,715.64
2016-03-26T01:23:28.835Z,715.61
2016-03-26T01:23:42.648Z,715.63
2016-03-26T01:23:56.648Z,715.62
2016-03-26T01:24:10.542Z,715.67
2016-03-26T01:24:27.760Z,715.68
2016-03-26T01:24:41.651Z,715.61
2016-03-26T01:24:54.760Z,715.62
2016-03-26T01:25:08.965Z,715.6
2016-03-26T01:25:22.950Z,715.63
2016-03-26T01:25:36.872Z,715.48
2016-03-26T01:26:04.890Z,715.6
2016-03-26T01:26:19.172Z,715.65
2016-03-26T01:26:33.125Z,715.57
2016-03-26T01:26:47.047Z,715.62
2016-03-26T01:27:00.909Z,715.57
2016-03-26T01:27:15.081Z,715.54
2016-03-26T01:27:28.940Z,715.61
2016-03-26T01:27:42.846Z,715.71
2016-03-26T01:27:56.721Z,715.68
2016-03-26T01:28:10.645Z,715.62
2016-03-26T01:28:24.411Z,715.82
2016-03-26T01:28:38.302Z,715.66
2016-03-26T01:28:51.911Z,715.7
2016-03-26T01:29:05.961Z,715.54
2016-03-26T01:29:19.758Z,715.81
2016-03-26T01:29:33.695Z,715.3
2016-03-26T01:29:47.851Z,715.48
2016-03-26T01:30:01.604Z,715.5
2016-03-26T01:30:18.714Z,715.65
2016-03-26T01:30:33.136Z,715.73
2016-03-26T01:30:47.089Z,715.68
2016-03-26T01:31:01.279Z,715.81
2016-03-26T01:31:15.436Z,715.39
2016-03-26T01:31:29.232Z,715.3
2016-03-26T01:31:43.061Z,715.42
2016-03-26T01:31:57.154Z,715.49
2016-03-26T01:32:11.126Z,715.36
2016-03-26T01:32:25.314Z,715.37
2016-03-26T01:32:42.095Z,715.54
2016-03-26T01:32:56.532Z,715.55
2016-03-26T01:33:10.799Z,715.62
2016-03-26T01:33:25.033Z,715.7
2016-03-26T01:33:39.658Z,715.6
2016-03-26T01:33:53.580Z,715.64
2016-03-26T01:34:07.553Z,715.67
2016-03-26T01:34:21.600Z,715.54
2016-03-26T01:34:35.631Z,715.6
2016-03-26T01:34:49.459Z,715.6
2016-03-26T01:35:03.258Z,715.56
2016-03-26T01:35:17.196Z,715.62
2016-03-26T01:35:31.211Z,715.65
2016-03-26T01:35:45.180Z,715.63
2016-03-26T01:35:59.164Z,715.72
2016-03-26T01:36:13.245Z,715.39
2016-03-26T01:36:27.355Z,715.54
2016-03-26T01:36:41.433Z,715.45
2016-03-26T01:36:55.542Z,715.64
2016-03-26T01:37:09.435Z,715.54
2016-03-26T01:37:23.279Z,715.57
2016-03-26T01:37:51.122Z,715.58
2016-03-26T01:38:05.219Z,715.55
2016-03-26T01:38:18.969Z,715.62
2016-03-26T01:38:32.875Z,715.63
2016-03-26T01:38:46.797Z,715.45
2016-03-26T01:39:00.566Z,715.43
2016-03-26T01:39:14.582Z,715.36
2016-03-26T01:39:28.597Z,715.42
2016-03-26T01:39:42.503Z,715.49
2016-03-26T01:39:56.457Z,715.39
2016-03-26T01:40:10.443Z,715.48
2016-03-26T01:40:24.349Z,715.53
2016-03-26T01:40:38.412Z,715.54
2016-03-26T01:40:52.287Z,715.64
2016-03-26T01:41:06.134Z,715.59
2016-03-26T01:41:20.181Z,715.59
2016-03-26T01:41:34.056Z,715.48
2016-03-26T01:41:47.900Z,715.4
2016-03-26T01:42:02.293Z,715.36
2016-03-26T01:42:16.293Z,715.27
2016-03-26T01:42:30.324Z,715.46
2016-03-26T01:42:44.355Z,715.21
2016-03-26T01:42:58.199Z,715.38
2016-03-26T01:43:12.343Z,715.48
2016-03-26T01:43:26.639Z,715.56
2016-03-26T01:43:40.389Z,715.56
2016-03-26T01:43:54.639Z,715.5
2016-03-26T01:44:08.330Z,715.46
2016-03-26T01:44:36.236Z,715.4
2016-03-26T01:44:50.002Z,715.54
2016-03-26T01:45:03.833Z,715.4
2016-03-26T01:45:18.083Z,715.47
2016-03-26T01:45:32.036Z,715.55
2016-03-26T01:45:46.067Z,715.59
2016-03-26T01:46:00.788Z,715.52
2016-03-26T01:46:14.585Z,715.62
2016-03-26T01:46:28.601Z,715.53
2016-03-26T01:46:42.757Z,715.5
2016-03-26T01:46:56.601Z,715.57
2016-03-26T01:47:13.649Z,715.64
2016-03-26T01:47:27.743Z,715.4
2016-03-26T01:47:42.040Z,715.35
2016-03-26T01:47:55.946Z,715.56
2016-03-26T01:48:10.090Z,715.68
2016-03-26T01:48:23.918Z,715.61
2016-03-26T01:48:37.918Z,715.41
2016-03-26T01:48:51.918Z,715.57
2016-03-26T01:49:05.890Z,715.5
2016-03-26T01:49:19.687Z,715.4
2016-03-26T01:49:33.640Z,715.54
2016-03-26T01:49:47.390Z,715.32
2016-03-26T01:50:01.112Z,715.29
2016-03-26T01:50:14.862Z,715.41
2016-03-26T01:50:28.627Z,715.35
2016-03-26T01:50:42.596Z,715.36
2016-03-26T01:50:55.987Z,715.65
2016-03-26T01:51:09.785Z,715.42
2016-03-26T01:51:23.770Z,715.68
2016-03-26T01:51:37.473Z,715.52
2016-03-26T01:51:51.223Z,715.49
2016-03-26T01:52:05.585Z,715.48
2016-03-26T01:52:19.492Z,715.49
2016-03-26T01:52:34.038Z,715.33
2016-03-26T01:52:47.788Z,715.44
2016-03-26T01:53:01.854Z,715.44
2016-03-26T01:53:15.729Z,715.37
2016-03-26T01:53:29.682Z,715.44
2016-03-26T01:53:43.666Z,715.61
2016-03-26T01:53:57.698Z,715.31
2016-03-26T01:54:11.575Z,715.34
2016-03-26T01:54:25.762Z,715.34
2016-03-26T01:54:39.887Z,715.47
2016-03-26T01:54:53.965Z,715.59
2016-03-26T01:55:07.656Z,715.21
2016-03-26T01:55:21.734Z,715.5
2016-03-26T01:55:35.515Z,715.42
2016-03-26T01:55:49.296Z,715.24
2016-03-26T01:56:03.331Z,715.42
2016-03-26T01:56:45.237Z,715.17
2016-03-26T01:56:59.456Z,715.26
2016-03-26T01:57:13.426Z,715.2
2016-03-26T01:57:27.426Z,715.41
2016-03-26T01:57:41.411Z,715.49
2016-03-26T01:57:55.223Z,715.75
2016-03-26T01:58:09.289Z,715.72
2016-03-26T01:58:23.086Z,715.88
2016-03-26T01:58:37.179Z,715.37
2016-03-26T01:58:51.195Z,715.39
2016-03-26T01:59:05.416Z,715.51
2016-03-26T01:59:19.260Z,715.79
2016-03-26T01:59:33.447Z,715.13
2016-03-26T01:59:47.119Z,715.72
2016-03-26T02:00:01.294Z,715.01
2016-03-26T02:00:15.200Z,715.48
2016-03-26T02:00:29.263Z,715.35
2016-03-26T02:00:43.388Z,715.28
2016-03-26T02:00:57.450Z,715.55
2016-03-26T02:01:11.438Z,715.34
2016-03-26T02:01:26.204Z,715.28
2016-03-26T02:01:40.360Z,715.31
2016-03-26T02:01:54.329Z,715.19
2016-03-26T02:02:08.144Z,715.21
2016-03-26T02:02:36.175Z,715.11
2016-03-26T02:02:49.972Z,715.11
2016-03-26T02:03:03.772Z,715.31
2016-03-26T02:03:17.084Z,715.34
2016-03-26T02:03:31.115Z,715.25
2016-03-26T02:03:45.115Z,715.54
2016-03-26T02:03:59.022Z,715.48
2016-03-26T02:04:12.853Z,715.54
2016-03-26T02:04:27.009Z,715.49
2016-03-26T02:04:41.134Z,715.51
2016-03-26T02:04:55.009Z,715.64
2016-03-26T02:05:09.214Z,715.77
2016-03-26T02:05:23.370Z,715.2
2016-03-26T02:05:37.230Z,715
2016-03-26T02:05:51.261Z,715.05
2016-03-26T02:06:05.233Z,715.28
2016-03-26T02:06:19.108Z,715.37
2016-03-26T02:06:33.155Z,715.62
2016-03-26T02:06:47.155Z,715.51
2016-03-26T02:07:01.155Z,715.39
2016-03-26T02:07:15.157Z,715.45
2016-03-26T02:07:29.141Z,715.25
2016-03-26T02:07:42.782Z,715.44
2016-03-26T02:07:56.891Z,715.22
2016-03-26T02:08:25.160Z,715.41
2016-03-26T02:08:38.925Z,715.47
2016-03-26T02:08:53.253Z,715.5
2016-03-26T02:09:07.772Z,715.49
2016-03-26T02:09:21.631Z,715.47
2016-03-26T02:09:35.444Z,715.58
2016-03-26T02:09:49.209Z,715.58
2016-03-26T02:10:03.211Z,715.51
2016-03-26T02:10:17.430Z,715.46
2016-03-26T02:10:31.477Z,715.58
2016-03-26T02:10:45.133Z,715.46
2016-03-26T02:10:59.118Z,715.5
2016-03-26T02:11:13.074Z,715.66
2016-03-26T02:11:26.761Z,715.45
2016-03-26T02:11:40.871Z,715.51
2016-03-26T02:11:54.902Z,715.78
2016-03-26T02:12:09.046Z,715.56
2016-03-26T02:12:22.858Z,715.55
2016-03-26T02:12:36.921Z,715.43
2016-03-26T02:12:50.842Z,715.48
2016-03-26T02:13:04.861Z,715.33
2016-03-26T02:13:18.970Z,715.46
2016-03-26T02:13:32.736Z,715.34
2016-03-26T02:13:46.658Z,715.3
2016-03-26T02:14:00.455Z,715.38
2016-03-26T02:14:14.691Z,715.48
2016-03-26T02:14:28.597Z,715.31
2016-03-26T02:14:42.754Z,715.61
2016-03-26T02:14:56.738Z,715.49
2016-03-26T02:15:10.538Z,715.39
2016-03-26T02:15:24.507Z,715.49
2016-03-26T02:15:38.335Z,715.28
2016-03-26T02:15:52.257Z,715.43
2016-03-26T02:16:05.478Z,715.26
2016-03-26T02:16:19.416Z,715.03
2016-03-26T02:16:33.432Z,715.21
2016-03-26T02:16:47.650Z,715.21
2016-03-26T02:17:02.028Z,715.11
2016-03-26T02:17:16.231Z,715.21
2016-03-26T02:17:30.325Z,715.36
2016-03-26T02:17:44.169Z,715.1
2016-03-26T02:17:58.106Z,715.62
2016-03-26T02:18:11.937Z,715.4
2016-03-26T02:18:25.905Z,715.25
2016-03-26T02:18:40.108Z,715.55
2016-03-26T02:18:53.687Z,715.7
2016-03-26T02:19:07.658Z,715.01
2016-03-26T02:19:21.643Z,714.57
2016-03-26T02:19:35.658Z,715
2016-03-26T02:19:49.471Z,715.23
2016-03-26T02:20:03.332Z,715.27
2016-03-26T02:20:17.457Z,715.16
2016-03-26T02:20:31.285Z,715.35
2016-03-26T02:20:45.285Z,715.24
2016-03-26T02:20:58.582Z,715.2
2016-03-26T02:21:12.429Z,714.81
2016-03-26T02:21:26.382Z,715.26
2016-03-26T02:21:40.273Z,715.38
2016-03-26T02:21:54.226Z,715.55
2016-03-26T02:22:08.244Z,715.39
2016-03-26T02:22:22.635Z,715.19
2016-03-26T02:22:36.526Z,715.28
2016-03-26T02:22:50.557Z,715.28
2016-03-26T02:23:04.700Z,715.21
2016-03-26T02:23:18.684Z,714.95
2016-03-26T02:23:32.621Z,714.97
2016-03-26T02:23:46.387Z,715
2016-03-26T02:24:00.715Z,715.03
2016-03-26T02:24:14.687Z,714.86
2016-03-26T02:24:28.906Z,714.97
2016-03-26T02:24:43.015Z,715.21
2016-03-26T02:24:56.624Z,715.05
2016-03-26T02:25:10.548Z,715.13
2016-03-26T02:25:24.861Z,715.26
2016-03-26T02:25:38.658Z,715.15
2016-03-26T02:25:52.501Z,715.27
2016-03-26T02:26:06.333Z,715.23
2016-03-26T02:26:20.270Z,714.99
2016-03-26T02:26:34.176Z,715.32
2016-03-26T02:26:48.254Z,715.55
2016-03-26T02:27:01.364Z,715.18
2016-03-26T02:27:15.429Z,715.13
2016-03-26T02:27:29.117Z,715.06
2016-03-26T02:27:42.976Z,715.41
2016-03-26T02:27:57.273Z,715.34
2016-03-26T02:28:11.260Z,715.5
2016-03-26T02:28:25.260Z,715.46
2016-03-26T02:28:39.323Z,715.52
2016-03-26T02:28:53.292Z,715.53
2016-03-26T02:29:07.185Z,715.7
2016-03-26T02:29:21.310Z,715.62
2016-03-26T02:29:35.263Z,715.37
2016-03-26T02:29:49.201Z,715.3
2016-03-26T02:30:02.998Z,715.1
2016-03-26T02:30:17.016Z,715.32
2016-03-26T02:30:30.970Z,715.29
2016-03-26T02:30:44.876Z,715.13
2016-03-26T02:30:58.720Z,715.43
2016-03-26T02:31:12.440Z,715.59
2016-03-26T02:31:26.065Z,715.53
2016-03-26T02:31:40.128Z,715.76
2016-03-26T02:31:53.987Z,715.34
2016-03-26T02:32:07.646Z,715.72
2016-03-26T02:32:21.475Z,715.47
2016-03-26T02:32:35.350Z,715.49
2016-03-26T02:32:49.443Z,715.49
2016-03-26T02:33:17.336Z,715.49
2016-03-26T02:33:31.398Z,715.3
2016-03-26T02:33:45.086Z,715.74
2016-03-26T02:33:58.836Z,715.52
2016-03-26T02:34:40.620Z,714.99
2016-03-26T02:34:54.698Z,714.91
2016-03-26T02:35:08.700Z,715.32
2016-03-26T02:35:22.763Z,715.36
2016-03-26T02:35:36.638Z,715.19
2016-03-26T02:35:50.357Z,715.5
2016-03-26T02:36:04.656Z,715.33
2016-03-26T02:36:18.703Z,715.42
2016-03-26T02:36:31.906Z,715.65
2016-03-26T02:36:59.813Z,715.24
2016-03-26T02:37:14.050Z,715.62
2016-03-26T02:37:27.003Z,715.43
2016-03-26T02:37:40.722Z,715.26
2016-03-26T02:37:54.769Z,715.09
2016-03-26T02:38:08.771Z,715.16
2016-03-26T02:38:22.583Z,715.37
2016-03-26T02:38:36.208Z,715.45
2016-03-26T02:38:49.990Z,715.01
2016-03-26T02:39:03.978Z,715.54
2016-03-26T02:39:17.744Z,715.36
2016-03-26T02:39:31.665Z,715.4
2016-03-26T02:39:45.681Z,715.46
2016-03-26T02:39:59.681Z,715.34
2016-03-26T02:40:13.449Z,715.23
2016-03-26T02:40:27.324Z,715.29
2016-03-26T02:40:41.105Z,715.35
2016-03-26T02:40:54.980Z,715.31
2016-03-26T02:41:09.108Z,715.25
2016-03-26T02:41:23.202Z,715.23
2016-03-26T02:41:37.186Z,715.26
2016-03-26T02:41:51.139Z,715.36
2016-03-26T02:42:05.282Z,715.3
2016-03-26T02:42:19.469Z,715.25
2016-03-26T02:42:33.172Z,715.28
2016-03-26T02:42:46.969Z,715.31
2016-03-26T02:43:01.016Z,715.44
2016-03-26T02:43:14.707Z,715.28
2016-03-26T02:43:28.707Z,715.32
2016-03-26T02:43:42.769Z,715.23
2016-03-26T02:43:56.800Z,715.28
2016-03-26T02:44:10.991Z,715.2
2016-03-26T02:44:25.007Z,715.42
2016-03-26T02:44:39.069Z,715.27
2016-03-26T02:44:53.007Z,715.25
2016-03-26T02:45:06.744Z,715.27
2016-03-26T02:45:21.056Z,715.53
2016-03-26T02:45:34.838Z,715.5
2016-03-26T02:45:48.635Z,715.46
2016-03-26T02:46:02.353Z,715.36
2016-03-26T02:46:16.230Z,715.15
2016-03-26T02:47:04.465Z,715.3
2016-03-26T02:47:18.608Z,715.32
2016-03-26T02:47:32.874Z,715.28
2016-03-26T02:47:46.843Z,715.33
2016-03-26T02:48:00.046Z,715.36
2016-03-26T02:48:14.580Z,715.44
2016-03-26T02:48:27.861Z,715.51
2016-03-26T02:48:41.877Z,715.32
2016-03-26T02:48:56.127Z,715.34
2016-03-26T02:49:09.957Z,715
2016-03-26T02:49:23.879Z,715.28
2016-03-26T02:49:37.926Z,715.17
2016-03-26T02:49:52.066Z,715.28
2016-03-26T02:50:06.194Z,715.22
2016-03-26T02:50:20.148Z,715.25
2016-03-26T02:50:34.054Z,715.32
2016-03-26T02:50:47.882Z,715.3
2016-03-26T02:51:01.773Z,715.27
2016-03-26T02:51:15.696Z,715.48
2016-03-26T02:51:29.650Z,715.5
2016-03-26T02:51:43.353Z,715.39
2016-03-26T02:51:57.181Z,715.41
2016-03-26T02:52:11.075Z,715.32
2016-03-26T02:52:25.029Z,715.47
2016-03-26T02:52:42.154Z,715.4
2016-03-26T02:52:56.013Z,715.51
2016-03-26T02:53:10.062Z,715.35
2016-03-26T02:53:24.187Z,715.15
2016-03-26T02:53:37.999Z,715.29
2016-03-26T02:53:51.812Z,715.29
2016-03-26T02:54:05.659Z,715.31
2016-03-26T02:54:19.705Z,715.36
2016-03-26T02:54:33.612Z,715.44
2016-03-26T02:54:47.268Z,715.47
2016-03-26T02:55:01.143Z,715.4
2016-03-26T02:55:15.255Z,715.45
2016-03-26T02:55:29.146Z,715.36
2016-03-26T02:55:46.224Z,715.33
2016-03-26T02:56:00.521Z,715.45
2016-03-26T02:56:14.398Z,715.38
2016-03-26T02:56:28.351Z,715.49
2016-03-26T02:56:42.070Z,715.23
2016-03-26T02:56:56.039Z,715.32
2016-03-26T02:57:10.057Z,715.41
2016-03-26T02:57:24.042Z,715.44
2016-03-26T02:57:38.682Z,715.43
2016-03-26T02:57:52.401Z,715.49
2016-03-26T02:58:06.482Z,715.41
2016-03-26T02:58:20.341Z,715.66
2016-03-26T02:58:34.154Z,715.65
2016-03-26T02:58:48.138Z,715.52
2016-03-26T02:59:02.248Z,715.49
2016-03-26T02:59:16.031Z,715.61
2016-03-26T02:59:29.843Z,715.56